Time;durP1;ratioP1;P1;durP2;ratioP2;P2;SDS_P1;SDS_P2;PMS_P1;PMS_P2;Temp;Humidity;BMP_temperature;BMP_pressure;BME280_temperature;BME280_humidity;BME280_pressure;Samples;Min_cycle;Max_cycle;Signal;HPM_P1;HPM_P2
2022/04/02 00:02:07;;;;;;;1.50;1.07;;;;;;;;;;5063450;28;20667;-67
2022/04/02 00:04:37;;;;;;;1.70;1.03;;;;;;;;;;5063506;28;20218;-66
2022/04/02 00:07:07;;;;;;;0.90;0.70;;;;;;;;;;5062688;28;20205;-66
2022/04/02 00:09:40;;;;;;;0.83;0.80;;;;;;;;;;5066136;28;20198;-66
2022/04/02 00:12:10;;;;;;;1.17;0.73;;;;;;;;;;5063239;28;20198;-66
2022/04/02 00:14:38;;;;;;;1.00;0.90;;;;;;;;;;5065986;28;20201;-66
2022/04/02 00:17:08;;;;;;;1.07;0.80;;;;;;;;;;5065638;28;20302;-67
2022/04/02 00:19:38;;;;;;;0.70;0.70;;;;;;;;;;5060321;28;20468;-67
2022/04/02 00:22:08;;;;;;;2.13;0.90;;;;;;;;;;5066214;28;20623;-67
2022/04/02 00:24:39;;;;;;;1.40;1.10;;;;;;;;;;5046808;28;20221;-67
2022/04/02 00:27:08;;;;;;;2.60;0.97;;;;;;;;;;5063857;28;20205;-67
2022/04/02 00:29:41;;;;;;;2.30;0.93;;;;;;;;;;5064222;28;20239;-67
2022/04/02 00:32:09;;;;;;;0.93;0.83;;;;;;;;;;5066277;28;20353;-66
2022/04/02 00:34:36;;;;;;;1.90;0.90;;;;;;;;;;5066188;28;20767;-67
2022/04/02 00:37:03;;;;;;;1.00;0.80;;;;;;;;;;5066768;28;20206;-67
2022/04/02 00:39:31;;;;;;;1.80;0.90;;;;;;;;;;5064436;28;20205;-66
2022/04/02 00:41:58;;;;;;;1.27;0.93;;;;;;;;;;5063582;28;20216;-66
2022/04/02 00:44:26;;;;;;;1.37;1.27;;;;;;;;;;5066216;28;20193;-65
2022/04/02 00:46:53;;;;;;;1.20;0.80;;;;;;;;;;5065969;28;20201;-67
2022/04/02 00:49:21;;;;;;;1.10;0.83;;;;;;;;;;5063285;28;20612;-66
2022/04/02 00:51:49;;;;;;;1.40;0.90;;;;;;;;;;5066363;28;20201;-67
2022/04/02 00:54:17;;;;;;;0.97;0.87;;;;;;;;;;5045361;28;20206;-66
2022/04/02 00:56:45;;;;;;;2.50;0.90;;;;;;;;;;5066107;28;20251;-66
2022/04/02 00:59:12;;;;;;;1.10;0.80;;;;;;;;;;5063519;28;20201;-66
2022/04/02 01:01:39;;;;;;;0.80;0.80;;;;;;;;;;5064434;28;20718;-67
2022/04/02 01:04:07;;;;;;;1.23;0.90;;;;;;;;;;5066526;28;20201;-66
2022/04/02 01:06:35;;;;;;;1.60;1.13;;;;;;;;;;5063156;28;20311;-69
2022/04/02 01:09:03;;;;;;;1.67;0.90;;;;;;;;;;5048496;28;20201;-69
2022/04/02 01:11:40;;;;;;;1.20;0.90;;;;;;;;;;5044603;28;20214;-69
2022/04/02 01:14:07;;;;;;;2.97;1.27;;;;;;;;;;5066651;28;20213;-69
2022/04/02 01:16:35;;;;;;;1.03;0.93;;;;;;;;;;5069299;28;20262;-69
2022/04/02 01:19:03;;;;;;;1.30;0.93;;;;;;;;;;5067484;28;20206;-68
2022/04/02 01:21:30;;;;;;;1.43;0.90;;;;;;;;;;5071207;28;20201;-69
2022/04/02 01:23:58;;;;;;;2.57;1.10;;;;;;;;;;5073988;28;20791;-69
2022/04/02 01:26:26;;;;;;;1.17;0.87;;;;;;;;;;5069435;28;20213;-69
2022/04/02 01:28:57;;;;;;;1.73;0.90;;;;;;;;;;5069185;28;20202;-69
2022/04/02 01:31:25;;;;;;;1.20;1.10;;;;;;;;;;5063291;28;20217;-69
2022/04/02 01:33:53;;;;;;;1.97;1.10;;;;;;;;;;5069245;28;20178;-70
2022/04/02 01:36:21;;;;;;;1.23;0.80;;;;;;;;;;5069611;28;20193;-68
2022/04/02 01:38:49;;;;;;;1.03;0.80;;;;;;;;;;5068918;28;20214;-70
2022/04/02 01:41:16;;;;;;;2.10;0.93;;;;;;;;;;5046398;28;20262;-69
2022/04/02 01:43:44;;;;;;;0.80;0.80;;;;;;;;;;5068931;28;20202;-69
2022/04/02 01:46:11;;;;;;;1.30;0.77;;;;;;;;;;5069785;28;20232;-69
2022/04/02 01:48:40;;;;;;;0.90;0.90;;;;;;;;;;5069367;28;20634;-70
2022/04/02 01:51:07;;;;;;;1.53;1.03;;;;;;;;;;5067223;28;20198;-70
2022/04/02 01:53:35;;;;;;;0.87;0.83;;;;;;;;;;5064983;28;20210;-70
2022/04/02 01:56:02;;;;;;;1.30;0.87;;;;;;;;;;5051285;28;20205;-69
2022/04/02 01:58:29;;;;;;;1.03;0.93;;;;;;;;;;5068676;28;20233;-69
2022/04/02 02:00:56;;;;;;;1.37;0.77;;;;;;;;;;5046177;28;20182;-69
2022/04/02 02:03:24;;;;;;;1.10;0.70;;;;;;;;;;5063377;28;20197;-70
2022/04/02 02:05:53;;;;;;;0.97;0.87;;;;;;;;;;5065510;28;20268;-69
2022/04/02 02:08:20;;;;;;;1.90;1.10;;;;;;;;;;5065906;28;20688;-70
2022/04/02 02:10:48;;;;;;;0.97;0.80;;;;;;;;;;5068369;28;20205;-70
2022/04/02 02:13:15;;;;;;;0.90;0.70;;;;;;;;;;5067392;28;20615;-69
2022/04/02 02:15:43;;;;;;;0.90;0.70;;;;;;;;;;5068533;28;20301;-70
2022/04/02 02:18:10;;;;;;;4.60;1.13;;;;;;;;;;5075572;28;20214;-71
2022/04/02 02:20:40;;;;;;;1.10;0.90;;;;;;;;;;5068762;28;20216;-71
2022/04/02 02:23:12;;;;;;;0.93;0.70;;;;;;;;;;5052651;28;20197;-70
2022/04/02 02:25:45;;;;;;;2.40;0.70;;;;;;;;;;5049570;28;20340;-69
2022/04/02 02:28:17;;;;;;;0.80;0.70;;;;;;;;;;5069455;28;20727;-70
2022/04/02 02:30:47;;;;;;;2.57;0.60;;;;;;;;;;5047664;28;20210;-70
2022/04/02 02:36:00;;;;;;;0.60;0.60;;;;;;;;;;5068543;28;20205;-70
2022/04/02 02:38:27;;;;;;;0.83;0.70;;;;;;;;;;5066880;28;20190;-69
2022/04/02 02:40:54;;;;;;;0.87;0.87;;;;;;;;;;5067334;28;20201;-69
2022/04/02 02:43:21;;;;;;;1.13;1.10;;;;;;;;;;5063631;28;20214;-69
2022/04/02 02:45:50;;;;;;;1.63;1.10;;;;;;;;;;5069400;28;20222;-69
2022/04/02 02:48:17;;;;;;;1.00;0.90;;;;;;;;;;5075121;28;20197;-70
2022/04/02 02:50:45;;;;;;;0.90;0.70;;;;;;;;;;5067512;28;20206;-70
2022/04/02 02:53:12;;;;;;;1.10;0.73;;;;;;;;;;5033735;28;20186;-70
2022/04/02 02:55:40;;;;;;;1.63;1.03;;;;;;;;;;5063954;28;20459;-70
2022/04/02 02:58:10;;;;;;;1.03;0.93;;;;;;;;;;5073176;28;20622;-70
2022/04/02 03:00:37;;;;;;;1.13;0.83;;;;;;;;;;5061733;28;20199;-70
2022/04/02 03:03:05;;;;;;;0.97;0.70;;;;;;;;;;5046930;28;20217;-71
2022/04/02 03:05:32;;;;;;;1.47;0.80;;;;;;;;;;5067682;28;20736;-69
2022/04/02 03:08:00;;;;;;;0.90;0.80;;;;;;;;;;5069750;28;20205;-69
2022/04/02 03:10:27;;;;;;;1.27;0.80;;;;;;;;;;5067597;28;20262;-69
2022/04/02 03:12:55;;;;;;;0.97;0.80;;;;;;;;;;5050657;28;20284;-69
2022/04/02 03:15:24;;;;;;;1.43;0.80;;;;;;;;;;5063782;28;20194;-70
2022/04/02 03:17:52;;;;;;;0.70;0.70;;;;;;;;;;5068452;28;20671;-70
2022/04/02 03:20:20;;;;;;;0.73;0.70;;;;;;;;;;5049487;28;20534;-69
2022/04/02 03:22:49;;;;;;;1.23;0.90;;;;;;;;;;5049141;28;20202;-69
2022/04/02 03:25:17;;;;;;;0.60;0.60;;;;;;;;;;5064514;28;20205;-70
2022/04/02 03:27:46;;;;;;;1.20;0.87;;;;;;;;;;5066904;28;20190;-70
2022/04/02 03:30:14;;;;;;;0.60;0.50;;;;;;;;;;5063590;28;20221;-70
2022/04/02 03:32:42;;;;;;;2.00;1.00;;;;;;;;;;5069138;28;20197;-70
2022/04/02 03:35:10;;;;;;;0.73;0.73;;;;;;;;;;5031797;28;20234;-69
2022/04/02 03:37:38;;;;;;;1.13;0.90;;;;;;;;;;5062377;28;20204;-70
2022/04/02 03:40:10;;;;;;;0.60;0.60;;;;;;;;;;5055550;28;20716;-70
2022/04/02 03:42:38;;;;;;;2.67;0.97;;;;;;;;;;5064210;28;20217;-70
2022/04/02 03:45:06;;;;;;;0.87;0.60;;;;;;;;;;5065962;28;20864;-69
2022/04/02 03:47:33;;;;;;;1.20;0.90;;;;;;;;;;5066301;28;20236;-69
2022/04/02 03:50:00;;;;;;;1.33;0.90;;;;;;;;;;5067060;28;20659;-69
2022/04/02 03:52:28;;;;;;;0.63;0.60;;;;;;;;;;5066717;28;20213;-70
2022/04/02 03:54:55;;;;;;;0.90;0.90;;;;;;;;;;5063946;28;20266;-69
2022/04/02 03:57:23;;;;;;;0.97;0.67;;;;;;;;;;5063526;28;20306;-70
2022/04/02 03:59:50;;;;;;;1.00;0.90;;;;;;;;;;5071760;28;20201;-69
2022/04/02 04:02:21;;;;;;;0.70;0.50;;;;;;;;;;5065808;28;20247;-69
2022/04/02 04:04:53;;;;;;;2.33;0.80;;;;;;;;;;5066431;28;20208;-69
2022/04/02 04:07:25;;;;;;;1.03;0.70;;;;;;;;;;5059070;28;20291;-70
2022/04/02 04:09:55;;;;;;;1.20;0.73;;;;;;;;;;5071050;28;20200;-70
2022/04/02 04:12:26;;;;;;;0.70;0.70;;;;;;;;;;5066512;28;20190;-70
2022/04/02 04:14:55;;;;;;;2.17;0.80;;;;;;;;;;5068354;28;20251;-70
2022/04/02 04:17:23;;;;;;;0.97;0.80;;;;;;;;;;5061179;28;20270;-70
2022/04/02 04:19:51;;;;;;;0.93;0.60;;;;;;;;;;5066133;28;20267;-70
2022/04/02 04:22:18;;;;;;;1.23;0.60;;;;;;;;;;5063588;28;20198;-71
2022/04/02 04:24:45;;;;;;;2.17;0.57;;;;;;;;;;5066202;28;20193;-70
2022/04/02 04:27:13;;;;;;;1.13;0.77;;;;;;;;;;5063952;28;20614;-70
2022/04/02 04:29:40;;;;;;;0.87;0.63;;;;;;;;;;5064242;28;20590;-70
2022/04/02 04:32:07;;;;;;;1.10;0.73;;;;;;;;;;5065131;28;20259;-70
2022/04/02 04:34:34;;;;;;;1.10;1.00;;;;;;;;;;5047406;28;20297;-69
2022/04/02 04:37:01;;;;;;;1.00;0.90;;;;;;;;;;5066731;28;20189;-70
2022/04/02 04:39:29;;;;;;;0.70;0.60;;;;;;;;;;5062577;28;20913;-70
2022/04/02 04:41:56;;;;;;;2.97;0.70;;;;;;;;;;5063544;28;20217;-70
2022/04/02 04:44:23;;;;;;;1.03;0.80;;;;;;;;;;5066479;28;20271;-71
2022/04/02 04:46:55;;;;;;;1.03;0.83;;;;;;;;;;5062859;28;20217;-69
2022/04/02 04:49:22;;;;;;;0.60;0.60;;;;;;;;;;5073229;28;20239;-70
2022/04/02 04:51:50;;;;;;;1.17;0.87;;;;;;;;;;5058825;28;20190;-70
2022/04/02 04:54:17;;;;;;;1.80;0.77;;;;;;;;;;5067186;28;20198;-69
2022/04/02 04:56:44;;;;;;;0.73;0.73;;;;;;;;;;5058821;28;20279;-70
2022/04/02 04:59:12;;;;;;;3.00;0.80;;;;;;;;;;5064975;28;20713;-69
2022/04/02 05:01:39;;;;;;;1.13;0.70;;;;;;;;;;5077238;28;20197;-66
2022/04/02 05:04:21;;;;;;;0.70;0.70;;;;;;;;;;5072008;28;20193;-67
2022/04/02 05:06:58;;;;;;;1.27;0.87;;;;;;;;;;5077234;28;20225;-67
2022/04/02 05:09:28;;;;;;;0.83;0.80;;;;;;;;;;5033476;28;20213;-67
2022/04/02 05:12:01;;;;;;;1.23;0.93;;;;;;;;;;5070300;28;20678;-70
2022/04/02 05:14:35;;;;;;;1.63;1.10;;;;;;;;;;5069486;28;20193;-70
2022/04/02 05:17:05;;;;;;;0.73;0.73;;;;;;;;;;5061980;28;20204;-70
2022/04/02 05:19:35;;;;;;;1.43;1.00;;;;;;;;;;5066805;28;20218;-70
2022/04/02 05:22:04;;;;;;;0.77;0.70;;;;;;;;;;5057614;28;20259;-70
2022/04/02 05:24:33;;;;;;;1.33;1.20;;;;;;;;;;5069813;28;20751;-70
2022/04/02 05:27:03;;;;;;;0.97;0.80;;;;;;;;;;5069418;28;20579;-68
2022/04/02 05:29:33;;;;;;;1.37;1.00;;;;;;;;;;5067561;28;20209;-67
2022/04/02 05:32:03;;;;;;;1.80;0.73;;;;;;;;;;5068930;28;20275;-66
2022/04/02 05:34:33;;;;;;;1.17;0.80;;;;;;;;;;5059657;28;20205;-65
2022/04/02 05:37:02;;;;;;;1.47;0.87;;;;;;;;;;5069870;28;20221;-71
2022/04/02 05:39:36;;;;;;;1.53;1.23;;;;;;;;;;5069452;28;20572;-71
2022/04/02 05:42:07;;;;;;;1.37;1.20;;;;;;;;;;5047587;28;20209;-71
2022/04/02 05:44:36;;;;;;;1.07;0.97;;;;;;;;;;5073077;28;20193;-70
2022/04/02 05:47:06;;;;;;;1.30;1.00;;;;;;;;;;5051994;28;20225;-66
2022/04/02 05:49:51;;;;;;;0.80;0.57;;;;;;;;;;5068032;28;20186;-66
2022/04/02 05:52:21;;;;;;;1.13;1.03;;;;;;;;;;5069480;28;20623;-70
2022/04/02 05:54:52;;;;;;;0.70;0.70;;;;;;;;;;5058573;28;20746;-70
2022/04/02 05:57:25;;;;;;;1.20;0.90;;;;;;;;;;5067562;28;20252;-70
2022/04/02 05:59:57;;;;;;;1.20;1.10;;;;;;;;;;5074164;28;20181;-70
2022/04/02 06:02:32;;;;;;;1.37;0.90;;;;;;;;;;5062977;28;20201;-70
2022/04/02 06:05:08;;;;;;;0.90;0.70;;;;;;;;;;5068512;28;20217;-69
2022/04/02 06:07:49;;;;;;;1.47;1.20;;;;;;;;;;5068416;28;20213;-70
2022/04/02 06:10:20;;;;;;;1.70;1.07;;;;;;;;;;5070042;28;20190;-69
2022/04/02 06:12:51;;;;;;;1.30;0.87;;;;;;;;;;5068850;28;20206;-69
2022/04/02 06:15:37;;;;;;;1.67;1.50;;;;;;;;;;5070736;28;20221;-67
2022/04/02 06:18:07;;;;;;;1.73;1.63;;;;;;;;;;5066893;28;20379;-66
2022/04/02 06:20:37;;;;;;;1.50;1.40;;;;;;;;;;5068935;28;20190;-67
2022/04/02 06:23:05;;;;;;;1.83;1.73;;;;;;;;;;5068083;28;20216;-68
2022/04/02 06:25:35;;;;;;;1.63;1.53;;;;;;;;;;5066308;28;20252;-70
2022/04/02 06:28:07;;;;;;;1.37;1.20;;;;;;;;;;5068698;28;20236;-69
2022/04/02 06:30:41;;;;;;;1.60;1.50;;;;;;;;;;5048285;28;20259;-70
2022/04/02 06:33:13;;;;;;;2.40;1.60;;;;;;;;;;5066326;28;20694;-70
2022/04/02 06:35:46;;;;;;;2.43;1.57;;;;;;;;;;5051544;28;20193;-68
2022/04/02 06:38:18;;;;;;;2.00;1.70;;;;;;;;;;5068097;28;20241;-67
2022/04/02 06:40:49;;;;;;;1.90;1.50;;;;;;;;;;5068107;28;20206;-68
2022/04/02 06:43:19;;;;;;;2.13;1.80;;;;;;;;;;5062790;28;20205;-67
2022/04/02 06:45:46;;;;;;;1.50;1.40;;;;;;;;;;5069210;28;20591;-70
2022/04/02 06:48:16;;;;;;;1.50;1.30;;;;;;;;;;5068629;28;20995;-70
2022/04/02 06:50:43;;;;;;;1.60;1.50;;;;;;;;;;5068149;28;20189;-69
2022/04/02 06:53:10;;;;;;;3.10;1.83;;;;;;;;;;5065757;28;20613;-70
2022/04/02 06:55:40;;;;;;;1.87;1.47;;;;;;;;;;5068457;28;20674;-68
2022/04/02 06:58:19;;;;;;;1.73;1.23;;;;;;;;;;5068093;28;20708;-70
2022/04/02 07:00:49;;;;;;;1.90;1.67;;;;;;;;;;5067478;28;20201;-70
2022/04/02 07:03:17;;;;;;;1.40;1.30;;;;;;;;;;5064609;28;20209;-69
2022/04/02 07:05:47;;;;;;;1.40;1.30;;;;;;;;;;5066040;28;20210;-66
2022/04/02 07:08:19;;;;;;;2.10;1.10;;;;;;;;;;5068285;28;20255;-67
2022/04/02 07:10:49;;;;;;;1.50;1.40;;;;;;;;;;5068569;28;20502;-70
2022/04/02 07:13:16;;;;;;;1.47;1.37;;;;;;;;;;5062582;28;20197;-70
2022/04/02 07:15:49;;;;;;;1.40;1.30;;;;;;;;;;5065257;28;20242;-67
2022/04/02 07:18:18;;;;;;;2.57;1.30;;;;;;;;;;5061639;28;20224;-68
2022/04/02 07:21:02;;;;;;;1.30;1.20;;;;;;;;;;5065621;28;20205;-69
2022/04/02 07:23:35;;;;;;;1.70;1.30;;;;;;;;;;5045315;28;20200;-70
2022/04/02 07:26:06;;;;;;;1.57;1.10;;;;;;;;;;5066197;28;20194;-66
2022/04/02 07:28:39;;;;;;;1.20;1.10;;;;;;;;;;5049807;28;20190;-66
2022/04/02 07:31:10;;;;;;;1.10;1.00;;;;;;;;;;5062221;28;20206;-66
2022/04/02 07:33:41;;;;;;;1.90;1.17;;;;;;;;;;5059385;28;20190;-66
2022/04/02 07:36:21;;;;;;;1.43;1.20;;;;;;;;;;5066926;28;20982;-70
2022/04/02 07:39:02;;;;;;;1.53;1.27;;;;;;;;;;5064411;28;20194;-69
2022/04/02 07:42:03;;;;;;;1.83;1.10;;;;;;;;;;5064650;28;20254;-68
2022/04/02 07:44:52;;;;;;;0.97;0.90;;;;;;;;;;5066597;28;20194;-70
2022/04/02 07:47:30;;;;;;;1.70;1.17;;;;;;;;;;5066386;28;20263;-66
2022/04/02 07:50:21;;;;;;;1.20;1.07;;;;;;;;;;5048168;28;20186;-66
2022/04/02 07:52:52;;;;;;;1.70;1.07;;;;;;;;;;5065656;28;20577;-68
2022/04/02 07:55:25;;;;;;;1.83;0.90;;;;;;;;;;5042994;28;20210;-69
2022/04/02 07:57:53;;;;;;;2.17;0.90;;;;;;;;;;5045936;28;20242;-70
2022/04/02 08:00:26;;;;;;;1.17;0.90;;;;;;;;;;5065767;28;20211;-67
2022/04/02 08:02:55;;;;;;;1.43;0.90;;;;;;;;;;5048045;28;20206;-68
2022/04/02 08:05:27;;;;;;;1.67;1.00;;;;;;;;;;5027658;28;20251;-69
2022/04/02 08:08:04;;;;;;;1.10;1.00;;;;;;;;;;5062281;28;20209;-69
2022/04/02 08:10:35;;;;;;;1.30;1.20;;;;;;;;;;5066132;28;20193;-70
2022/04/02 08:13:05;;;;;;;1.60;1.20;;;;;;;;;;5065892;28;20208;-69
2022/04/02 08:15:33;;;;;;;1.57;1.07;;;;;;;;;;5044573;28;20201;-66
2022/04/02 08:18:05;;;;;;;2.20;1.10;;;;;;;;;;5061982;28;20671;-66
2022/04/02 08:20:34;;;;;;;2.23;0.80;;;;;;;;;;5059110;28;20658;-69
2022/04/02 08:23:07;;;;;;;2.03;1.20;;;;;;;;;;5070152;28;20190;-69
2022/04/02 08:25:40;;;;;;;1.10;0.90;;;;;;;;;;5064024;28;20205;-69
2022/04/02 08:28:14;;;;;;;2.17;1.23;;;;;;;;;;5067999;28;20255;-69
2022/04/02 08:30:53;;;;;;;1.37;0.90;;;;;;;;;;5061818;28;20201;-67
2022/04/02 08:33:42;;;;;;;1.10;1.03;;;;;;;;;;5060897;28;20213;-66
2022/04/02 08:36:32;;;;;;;2.23;0.97;;;;;;;;;;5065043;28;20182;-69
2022/04/02 08:39:09;;;;;;;1.07;0.97;;;;;;;;;;5063535;28;20198;-69
2022/04/02 08:42:04;;;;;;;2.03;1.20;;;;;;;;;;5062003;28;20221;-67
2022/04/02 08:44:55;;;;;;;1.93;1.20;;;;;;;;;;5060773;28;20198;-67
2022/04/02 08:47:29;;;;;;;1.33;1.20;;;;;;;;;;5060962;28;20210;-69
2022/04/02 08:50:15;;;;;;;1.30;1.07;;;;;;;;;;5063925;28;20189;-67
2022/04/02 08:52:55;;;;;;;2.43;1.00;;;;;;;;;;5064054;28;20201;-66
2022/04/02 08:55:37;;;;;;;1.20;0.97;;;;;;;;;;5056509;28;20216;-66
2022/04/02 08:58:21;;;;;;;1.53;1.43;;;;;;;;;;5066878;28;20245;-65
2022/04/02 09:01:12;;;;;;;1.23;1.10;;;;;;;;;;5066818;28;20210;-65
2022/04/02 09:04:00;;;;;;;2.17;1.20;;;;;;;;;;5064688;28;20294;-66
2022/04/02 09:06:38;;;;;;;1.47;1.03;;;;;;;;;;5049387;28;20783;-68
2022/04/02 09:09:26;;;;;;;5.03;1.10;;;;;;;;;;5055516;28;20190;-67
2022/04/02 09:12:12;;;;;;;3.43;1.47;;;;;;;;;;5055062;28;20213;-68
2022/04/02 09:15:19;;;;;;;2.87;1.10;;;;;;;;;;5062295;28;20320;-67
2022/04/02 09:18:03;;;;;;;1.80;1.30;;;;;;;;;;4964606;28;20216;-66
2022/04/02 09:20:39;;;;;;;2.43;1.27;;;;;;;;;;4983324;28;20216;-65
2022/04/02 09:23:35;;;;;;;2.30;1.17;;;;;;;;;;4983117;28;20227;-67
2022/04/02 09:26:26;;;;;;;2.43;1.33;;;;;;;;;;4979611;28;20646;-67
2022/04/02 09:29:29;;;;;;;2.00;1.10;;;;;;;;;;4984269;28;20220;-66
2022/04/02 09:32:17;;;;;;;2.37;1.00;;;;;;;;;;4959205;28;20899;-65
2022/04/02 09:35:08;;;;;;;2.17;1.30;;;;;;;;;;5005957;28;21066;-66
2022/04/02 09:38:00;;;;;;;2.50;1.70;;;;;;;;;;5001745;28;20606;-65
2022/04/02 09:40:49;;;;;;;3.53;1.20;;;;;;;;;;5007279;28;20214;-66
2022/04/02 09:43:31;;;;;;;3.13;1.20;;;;;;;;;;4998581;28;20235;-66
2022/04/02 09:46:18;;;;;;;2.20;1.23;;;;;;;;;;5001052;28;20211;-66
2022/04/02 09:49:11;;;;;;;2.47;1.00;;;;;;;;;;5009426;28;20232;-66
2022/04/02 09:51:43;;;;;;;1.83;1.23;;;;;;;;;;5010169;28;20238;-66
2022/04/02 09:54:30;;;;;;;1.50;0.90;;;;;;;;;;5023661;28;20213;-67
2022/04/02 09:57:08;;;;;;;1.87;1.47;;;;;;;;;;5068519;28;20216;-66
2022/04/02 09:59:56;;;;;;;2.07;0.90;;;;;;;;;;5069522;28;20852;-67
2022/04/02 10:02:44;;;;;;;2.07;1.00;;;;;;;;;;5058944;28;20209;-66
2022/04/02 10:05:19;;;;;;;2.30;1.27;;;;;;;;;;5057686;28;20189;-65
2022/04/02 10:08:05;;;;;;;1.10;0.87;;;;;;;;;;5067100;28;20675;-66
2022/04/02 10:10:33;;;;;;;2.03;1.33;;;;;;;;;;5061391;28;20212;-66
2022/04/02 10:13:02;;;;;;;1.73;1.30;;;;;;;;;;5047122;28;20193;-66
2022/04/02 10:15:31;;;;;;;1.57;1.00;;;;;;;;;;5062801;28;20193;-66
2022/04/02 10:18:02;;;;;;;1.67;1.00;;;;;;;;;;5063610;28;20213;-65
2022/04/02 10:20:30;;;;;;;0.97;0.87;;;;;;;;;;5067667;28;20574;-66
2022/04/02 10:23:12;;;;;;;1.83;1.40;;;;;;;;;;5067904;28;20198;-65
2022/04/02 10:25:47;;;;;;;1.97;1.40;;;;;;;;;;5069670;28;20194;-65
2022/04/02 10:28:19;;;;;;;1.57;1.10;;;;;;;;;;5068212;28;20205;-66
2022/04/02 10:30:49;;;;;;;1.53;1.10;;;;;;;;;;5064558;28;20209;-66
2022/04/02 10:33:28;;;;;;;1.70;1.27;;;;;;;;;;5065430;28;20500;-67
2022/04/02 10:35:56;;;;;;;1.53;1.00;;;;;;;;;;5049528;28;20197;-67
2022/04/02 10:38:34;;;;;;;1.20;1.10;;;;;;;;;;5055846;28;20201;-68
2022/04/02 10:41:16;;;;;;;1.33;0.90;;;;;;;;;;5067376;28;20206;-66
2022/04/02 10:43:50;;;;;;;1.80;1.00;;;;;;;;;;5064992;28;20225;-67
2022/04/02 10:46:22;;;;;;;1.93;1.30;;;;;;;;;;5066619;28;20643;-66
2022/04/02 10:48:57;;;;;;;1.30;1.20;;;;;;;;;;5064717;28;20213;-66
2022/04/02 10:51:30;;;;;;;2.03;1.10;;;;;;;;;;5047585;28;20259;-66
2022/04/02 10:54:04;;;;;;;1.63;0.93;;;;;;;;;;5064986;28;20213;-67
2022/04/02 10:56:35;;;;;;;1.33;1.23;;;;;;;;;;5058517;28;20254;-66
2022/04/02 10:59:03;;;;;;;1.87;1.37;;;;;;;;;;5040955;28;20486;-66
2022/04/02 11:01:31;;;;;;;1.53;1.00;;;;;;;;;;5064255;28;20215;-65
2022/04/02 11:04:03;;;;;;;1.30;1.10;;;;;;;;;;5057088;28;20193;-65
2022/04/02 11:06:50;;;;;;;3.63;1.50;;;;;;;;;;5048082;28;20217;-65
2022/04/02 11:09:27;;;;;;;1.43;1.10;;;;;;;;;;5065034;28;20550;-66
2022/04/02 11:11:56;;;;;;;2.03;1.23;;;;;;;;;;5067941;28;20565;-66
2022/04/02 11:14:24;;;;;;;1.87;1.53;;;;;;;;;;5056383;28;20206;-65
2022/04/02 11:16:51;;;;;;;2.17;1.33;;;;;;;;;;5065938;28;20721;-65
2022/04/02 11:22:08;;;;;;;2.60;1.13;;;;;;;;;;5063436;28;20186;-65
2022/04/02 11:24:50;;;;;;;1.90;1.47;;;;;;;;;;5065548;28;20838;-65
2022/04/02 11:27:18;;;;;;;2.67;1.80;;;;;;;;;;5061518;28;20193;-68
2022/04/02 11:29:50;;;;;;;7.33;1.80;;;;;;;;;;5060555;28;20213;-68
2022/04/02 11:32:23;;;;;;;5.47;1.70;;;;;;;;;;5066060;28;20197;-68
2022/04/02 11:34:51;;;;;;;5.37;2.00;;;;;;;;;;5061176;28;20243;-67
2022/04/02 11:37:22;;;;;;;9.10;1.90;;;;;;;;;;5067227;28;20205;-66
2022/04/02 11:39:52;;;;;;;2.67;1.23;;;;;;;;;;5064983;28;20590;-67
2022/04/02 11:42:32;;;;;;;6.13;1.67;;;;;;;;;;5025364;28;20920;-66
2022/04/02 11:45:03;;;;;;;2.93;1.50;;;;;;;;;;5067788;28;20200;-66
2022/04/02 11:47:36;;;;;;;4.63;1.50;;;;;;;;;;5061297;28;20274;-66
2022/04/02 11:50:08;;;;;;;2.47;1.57;;;;;;;;;;5063055;28;20270;-68
2022/04/02 11:52:53;;;;;;;2.53;1.40;;;;;;;;;;5065427;28;20190;-67
2022/04/02 11:55:21;;;;;;;2.33;1.10;;;;;;;;;;5044262;28;20804;-66
2022/04/02 11:57:56;;;;;;;1.47;1.10;;;;;;;;;;5065093;28;20244;-67
2022/04/02 12:00:31;;;;;;;4.63;1.60;;;;;;;;;;5064399;28;20205;-69
2022/04/02 12:03:01;;;;;;;2.33;1.27;;;;;;;;;;5064644;28;20537;-66
2022/04/02 12:05:35;;;;;;;3.63;1.40;;;;;;;;;;5045348;28;20709;-67
2022/04/02 12:08:05;;;;;;;1.93;1.10;;;;;;;;;;5046175;28;20590;-67
2022/04/02 12:10:52;;;;;;;1.60;1.20;;;;;;;;;;5047685;28;20200;-67
2022/04/02 12:13:22;;;;;;;1.67;1.17;;;;;;;;;;5061630;28;20221;-66
2022/04/02 12:16:01;;;;;;;1.77;1.40;;;;;;;;;;5062730;28;20278;-67
2022/04/02 12:18:34;;;;;;;2.17;1.20;;;;;;;;;;5058952;28;20214;-66
2022/04/02 12:21:10;;;;;;;3.17;1.40;;;;;;;;;;5064345;28;20287;-66
2022/04/02 12:23:54;;;;;;;119.53;22.80;;;;;;;;;;5067681;28;20622;-67
2022/04/02 12:26:24;;;;;;;230.57;41.57;;;;;;;;;;5070883;28;20193;-67
2022/04/02 12:28:58;;;;;;;152.10;29.53;;;;;;;;;;5052065;28;20228;-67
2022/04/02 12:31:35;;;;;;;111.57;24.67;;;;;;;;;;5061150;28;20220;-67
2022/04/02 12:34:21;;;;;;;88.27;20.07;;;;;;;;;;5047890;28;20744;-66
2022/04/02 12:37:01;;;;;;;81.53;18.10;;;;;;;;;;5063327;28;20202;-67
2022/04/02 12:39:35;;;;;;;59.83;15.43;;;;;;;;;;5064014;28;20208;-67
2022/04/02 12:42:06;;;;;;;46.60;12.20;;;;;;;;;;5055913;28;20239;-67
2022/04/02 12:44:37;;;;;;;38.57;10.47;;;;;;;;;;5048361;28;20248;-68
2022/04/02 12:47:14;;;;;;;44.77;10.83;;;;;;;;;;5065696;28;20198;-68
2022/04/02 12:49:42;;;;;;;37.13;9.57;;;;;;;;;;5064636;28;20270;-66
2022/04/02 12:52:16;;;;;;;33.37;8.67;;;;;;;;;;5065584;28;20264;-67
2022/04/02 12:54:50;;;;;;;28.07;7.17;;;;;;;;;;5064394;28;20229;-69
2022/04/02 12:57:31;;;;;;;23.77;6.97;;;;;;;;;;5067876;28;20236;-67
2022/04/02 13:00:01;;;;;;;25.47;6.27;;;;;;;;;;5045862;28;20178;-66
2022/04/02 13:02:43;;;;;;;23.17;6.20;;;;;;;;;;5065947;28;20209;-66
2022/04/02 13:05:20;;;;;;;20.93;6.00;;;;;;;;;;5046982;28;20209;-66
2022/04/02 13:08:07;;;;;;;16.70;6.20;;;;;;;;;;5065568;28;20197;-67
2022/04/02 13:10:48;;;;;;;15.33;5.80;;;;;;;;;;5063289;28;20756;-66
2022/04/02 13:13:19;;;;;;;11.97;5.37;;;;;;;;;;5050964;28;20780;-66
2022/04/02 13:15:52;;;;;;;12.23;5.20;;;;;;;;;;5069777;28;20194;-68
2022/04/02 13:21:13;;;;;;;13.10;4.90;;;;;;;;;;5069240;28;20202;-66
2022/04/02 13:23:59;;;;;;;12.70;5.77;;;;;;;;;;5067870;28;20204;-66
2022/04/02 13:26:35;;;;;;;8.70;4.47;;;;;;;;;;5069157;28;20423;-66
2022/04/02 13:29:26;;;;;;;13.60;5.10;;;;;;;;;;5053329;28;20213;-67
2022/04/02 13:32:10;;;;;;;11.50;4.80;;;;;;;;;;5068954;28;20190;-66
2022/04/02 13:34:41;;;;;;;8.00;4.00;;;;;;;;;;5069641;28;20193;-67
2022/04/02 13:37:20;;;;;;;11.00;4.53;;;;;;;;;;5067992;28;20200;-67
2022/04/02 13:39:57;;;;;;;9.77;4.33;;;;;;;;;;5062678;28;20654;-68
2022/04/02 13:42:34;;;;;;;8.40;4.23;;;;;;;;;;5069632;28;20271;-66
2022/04/02 13:45:03;;;;;;;11.30;4.53;;;;;;;;;;5069825;28;20201;-66
2022/04/02 13:47:32;;;;;;;8.20;4.60;;;;;;;;;;5067848;28;20346;-67
2022/04/02 13:49:59;;;;;;;9.07;4.23;;;;;;;;;;5067589;28;20282;-67
2022/04/02 13:52:31;;;;;;;8.97;4.27;;;;;;;;;;5066452;28;20267;-66
2022/04/02 13:55:01;;;;;;;8.87;4.37;;;;;;;;;;5065629;28;20213;-65
2022/04/02 13:57:32;;;;;;;12.77;4.83;;;;;;;;;;5075278;28;20279;-66
2022/04/02 14:00:04;;;;;;;7.37;4.17;;;;;;;;;;5069767;28;20204;-66
2022/04/02 14:02:32;;;;;;;10.87;4.57;;;;;;;;;;5068987;28;20236;-67
2022/04/02 14:05:23;;;;;;;7.63;3.80;;;;;;;;;;5063138;28;20189;-66
2022/04/02 14:08:14;;;;;;;7.03;3.67;;;;;;;;;;5075348;28;20201;-68
2022/04/02 14:10:52;;;;;;;10.00;4.30;;;;;;;;;;5071133;28;20205;-65
2022/04/02 14:13:32;;;;;;;8.80;3.80;;;;;;;;;;5077412;28;20558;-65
2022/04/02 14:16:16;;;;;;;7.63;3.50;;;;;;;;;;5055716;28;20186;-66
2022/04/02 14:18:46;;;;;;;8.63;3.67;;;;;;;;;;5070129;28;20206;-65
2022/04/02 14:21:22;;;;;;;6.07;3.00;;;;;;;;;;5049866;28;20221;-68
2022/04/02 14:23:59;;;;;;;6.03;2.83;;;;;;;;;;5073327;28;20185;-68
2022/04/02 14:26:27;;;;;;;5.60;2.73;;;;;;;;;;5072520;28;20201;-66
2022/04/02 14:29:10;;;;;;;7.67;3.57;;;;;;;;;;5071406;28;20213;-66
2022/04/02 14:32:00;;;;;;;5.07;3.00;;;;;;;;;;5063800;28;20242;-65
2022/04/02 14:34:52;;;;;;;9.13;3.27;;;;;;;;;;5070819;28;20285;-65
2022/04/02 14:37:43;;;;;;;7.13;2.87;;;;;;;;;;5064707;28;20201;-65
2022/04/02 14:40:13;;;;;;;4.50;2.50;;;;;;;;;;5060880;28;20217;-66
2022/04/02 14:43:14;;;;;;;4.97;2.13;;;;;;;;;;5064915;28;20245;-65
2022/04/02 14:45:42;;;;;;;4.43;2.20;;;;;;;;;;5025330;28;20213;-67
2022/04/02 14:48:16;;;;;;;4.30;2.13;;;;;;;;;;5068744;28;20690;-66
2022/04/02 14:51:13;;;;;;;8.20;2.07;;;;;;;;;;5068072;28;20201;-66
2022/04/02 14:53:51;;;;;;;5.27;2.00;;;;;;;;;;5019931;28;20570;-66
2022/04/02 14:56:40;;;;;;;4.97;1.97;;;;;;;;;;5006881;28;20306;-66
2022/04/02 14:59:18;;;;;;;4.63;1.83;;;;;;;;;;5063921;28;20268;-67
2022/04/02 15:02:19;;;;;;;3.53;1.70;;;;;;;;;;5066002;28;20193;-66
2022/04/02 15:04:53;;;;;;;3.03;1.97;;;;;;;;;;5065227;28;20198;-67
2022/04/02 15:07:39;;;;;;;3.20;1.67;;;;;;;;;;5057587;28;20217;-67
2022/04/02 15:10:29;;;;;;;4.50;1.90;;;;;;;;;;5065580;28;20805;-67
2022/04/02 15:12:59;;;;;;;2.87;1.60;;;;;;;;;;5065892;28;20194;-67
2022/04/02 15:15:52;;;;;;;3.63;1.90;;;;;;;;;;5063107;28;20677;-67
2022/04/02 15:18:25;;;;;;;3.10;1.83;;;;;;;;;;5062117;28;20211;-66
2022/04/02 15:21:12;;;;;;;2.70;1.63;;;;;;;;;;5057945;28;20201;-65
2022/04/02 15:24:13;;;;;;;3.93;1.53;;;;;;;;;;5043562;28;20200;-64
2022/04/02 15:26:45;;;;;;;2.63;1.80;;;;;;;;;;5002763;28;20704;-68
2022/04/02 15:29:41;;;;;;;3.50;1.70;;;;;;;;;;5012104;28;20380;-68